Time;durP1;ratioP1;P1;durP2;ratioP2;P2;SDS_P1;SDS_P2;PMS_P1;PMS_P2;Temp;Humidity;BMP_temperature;BMP_pressure;BME280_temperature;BME280_humidity;BME280_pressure;Samples;Min_cycle;Max_cycle;Signal;HPM_P1;HPM_P2
2022/08/24 00:02:20;;;;;;;;;;;18.30;99.90;;;;;;5012377;28;19964;-72
2022/08/24 00:04:47;;;;;;;;;;;18.20;99.90;;;;;;5025008;28;20398;-73
2022/08/24 00:07:13;;;;;;;;;;;18.10;99.90;;;;;;5032426;28;20384;-72
2022/08/24 00:09:38;;;;;;;;;;;18.00;99.90;;;;;;5017707;28;20760;-73
2022/08/24 00:12:04;;;;;;;;;;;18.00;99.90;;;;;;5015847;28;19961;-73
2022/08/24 00:14:30;;;;;;;;;;;18.00;99.90;;;;;;5026252;28;19972;-72
2022/08/24 00:16:56;;;;;;;;;;;17.90;99.90;;;;;;5025538;28;19921;-73
2022/08/24 00:19:22;;;;;;;;;;;17.80;99.90;;;;;;5017827;28;19909;-72
2022/08/24 00:21:48;;;;;;;;;;;17.80;99.90;;;;;;5018267;28;19983;-71
2022/08/24 00:24:13;;;;;;;;;;;17.70;99.90;;;;;;5008833;28;19921;-73
2022/08/24 00:26:39;;;;;;;;;;;17.70;99.90;;;;;;5022922;28;19924;-72
2022/08/24 00:29:05;;;;;;;;;;;17.60;99.90;;;;;;5008859;28;19921;-72
2022/08/24 00:31:30;;;;;;;;;;;17.60;99.90;;;;;;5005306;28;19980;-72
2022/08/24 00:33:56;;;;;;;;;;;17.50;99.90;;;;;;5005917;28;20004;-73
2022/08/24 00:36:23;;;;;;;;;;;17.50;99.90;;;;;;5011676;28;20152;-73
2022/08/24 00:38:49;;;;;;;;;;;17.50;99.90;;;;;;5014943;28;19978;-73
2022/08/24 00:41:15;;;;;;;;;;;17.60;99.90;;;;;;5034830;28;19929;-73
2022/08/24 00:43:50;;;;;;;;;;;17.70;99.90;;;;;;5035766;28;20352;-72
2022/08/24 00:46:15;;;;;;;;;;;17.70;99.90;;;;;;5028728;28;20357;-73
2022/08/24 00:48:42;;;;;;;;;;;17.80;99.90;;;;;;5012947;28;20454;-72
2022/08/24 00:51:37;;;;;;;;;;;17.80;99.90;;;;;;5023347;28;19916;-72
2022/08/24 00:54:11;;;;;;;;;;;17.80;99.90;;;;;;5015561;28;20028;-73
2022/08/24 00:56:40;;;;;;;;;;;17.70;99.90;;;;;;5031621;28;19917;-73
2022/08/24 00:59:10;;;;;;;;;;;17.60;99.90;;;;;;5039861;28;19917;-73
2022/08/24 01:01:36;;;;;;;;;;;17.50;99.90;;;;;;5014861;28;19967;-72
2022/08/24 01:04:02;;;;;;;;;;;17.50;99.90;;;;;;5034397;28;19917;-73
2022/08/24 01:06:27;;;;;;;;;;;17.50;99.90;;;;;;5039601;28;19983;-73
2022/08/24 01:08:53;;;;;;;;;;;17.50;99.90;;;;;;5032399;28;20755;-73
2022/08/24 01:11:22;;;;;;;;;;;17.50;99.90;;;;;;5041403;28;19924;-73
2022/08/24 01:13:49;;;;;;;;;;;17.40;99.90;;;;;;5035599;28;19924;-73
2022/08/24 01:18:48;;;;;;;;;;;17.50;99.90;;;;;;5044680;28;19939;-73
2022/08/24 01:19:01;;;;;;;;;;;17.50;99.90;;;;;;5039460;28;19956;-73
2022/08/24 01:21:39;;;;;;;;;;;17.50;99.90;;;;;;5015602;28;19968;-72
2022/08/24 01:24:09;;;;;;;;;;;17.50;99.90;;;;;;5038414;28;19916;-72
2022/08/24 01:26:40;;;;;;;;;;;17.40;99.90;;;;;;5014986;28;19921;-73
2022/08/24 01:29:08;;;;;;;;;;;17.60;99.90;;;;;;5042894;28;19913;-72
2022/08/24 01:31:33;;;;;;;;;;;17.60;99.90;;;;;;5041658;28;19951;-72
2022/08/24 01:33:59;;;;;;;;;;;17.70;99.90;;;;;;5042002;28;19975;-73
2022/08/24 01:36:31;;;;;;;;;;;17.80;99.90;;;;;;5030708;28;20373;-73
2022/08/24 01:38:59;;;;;;;;;;;17.80;99.90;;;;;;5017497;28;19968;-72
2022/08/24 01:41:24;;;;;;;;;;;17.90;99.90;;;;;;5026266;28;20115;-72
2022/08/24 01:43:50;;;;;;;;;;;17.90;99.90;;;;;;5040919;28;19916;-73
2022/08/24 01:46:16;;;;;;;;;;;17.90;99.90;;;;;;5043855;28;19917;-73
2022/08/24 01:48:41;;;;;;;;;;;17.90;99.90;;;;;;5040354;28;19917;-72
2022/08/24 01:51:07;;;;;;;;;;;18.00;99.90;;;;;;5015627;28;19917;-73
2022/08/24 01:53:32;;;;;;;;;;;18.00;99.90;;;;;;5037222;28;19923;-73
2022/08/24 01:55:58;;;;;;;;;;;18.00;99.90;;;;;;5031381;28;19912;-72
2022/08/24 01:58:23;;;;;;;;;;;18.00;99.90;;;;;;5043235;28;20304;-73
2022/08/24 02:00:49;;;;;;;;;;;18.10;99.90;;;;;;5029317;28;19928;-73
2022/08/24 02:03:15;;;;;;;;;;;18.10;99.90;;;;;;5008238;28;20453;-72
2022/08/24 02:05:40;;;;;;;;;;;18.20;99.90;;;;;;5014186;28;19923;-73
2022/08/24 02:08:06;;;;;;;;;;;18.20;99.90;;;;;;5038895;28;20384;-72
2022/08/24 02:10:31;;;;;;;;;;;18.30;99.90;;;;;;5020786;28;20490;-72
2022/08/24 02:12:57;;;;;;;;;;;18.30;99.90;;;;;;5019443;28;20094;-73
2022/08/24 02:15:36;;;;;;;;;;;18.30;99.90;;;;;;5015300;28;19926;-73
2022/08/24 02:18:03;;;;;;;;;;;18.30;99.90;;;;;;5021291;28;19939;-73
2022/08/24 02:20:29;;;;;;;;;;;18.40;99.90;;;;;;5024575;28;20350;-73
2022/08/24 02:22:55;;;;;;;;;;;18.40;99.90;;;;;;5016998;28;19922;-73
2022/08/24 02:25:22;;;;;;;;;;;18.40;99.90;;;;;;5036113;28;20287;-73
2022/08/24 02:27:48;;;;;;;;;;;18.40;99.90;;;;;;5033714;28;19924;-73
2022/08/24 02:30:14;;;;;;;;;;;18.50;99.90;;;;;;5026884;28;19913;-73
2022/08/24 02:32:40;;;;;;;;;;;18.50;99.90;;;;;;5020657;28;19959;-73
2022/08/24 02:35:06;;;;;;;;;;;18.50;99.90;;;;;;5025631;28;19920;-72
2022/08/24 02:37:31;;;;;;;;;;;18.60;99.90;;;;;;5026919;28;20210;-73
2022/08/24 02:39:57;;;;;;;;;;;18.60;99.90;;;;;;5017589;28;19917;-72
2022/08/24 02:42:23;;;;;;;;;;;18.60;99.90;;;;;;5002169;28;19922;-73
2022/08/24 02:44:48;;;;;;;;;;;18.60;99.90;;;;;;5023938;28;19925;-72
2022/08/24 02:47:14;;;;;;;;;;;18.60;99.90;;;;;;5023074;28;19921;-73
2022/08/24 02:49:39;;;;;;;;;;;18.60;99.90;;;;;;5014563;28;20510;-72
2022/08/24 02:52:04;;;;;;;;;;;18.60;99.90;;;;;;5021256;28;19921;-73
2022/08/24 02:54:30;;;;;;;;;;;18.70;99.90;;;;;;5031447;28;19912;-72
2022/08/24 02:56:56;;;;;;;;;;;18.70;99.90;;;;;;5014687;28;20353;-73
2022/08/24 02:59:22;;;;;;;;;;;18.70;99.90;;;;;;4999633;28;20016;-72
2022/08/24 03:01:48;;;;;;;;;;;18.70;99.90;;;;;;5018570;28;19931;-72
2022/08/24 03:04:14;;;;;;;;;;;18.80;99.90;;;;;;5032410;28;19964;-72
2022/08/24 03:06:39;;;;;;;;;;;18.80;99.90;;;;;;5029879;28;19999;-73
2022/08/24 03:09:05;;;;;;;;;;;18.80;99.90;;;;;;5021954;28;19956;-72
2022/08/24 03:11:31;;;;;;;;;;;18.90;99.90;;;;;;5015544;28;19964;-72
2022/08/24 03:13:57;;;;;;;;;;;18.90;99.90;;;;;;5036748;28;19967;-72
2022/08/24 03:16:23;;;;;;;;;;;18.90;99.90;;;;;;5024894;28;19929;-73
2022/08/24 03:18:49;;;;;;;;;;;18.90;99.90;;;;;;5029942;28;19924;-73
2022/08/24 03:21:15;;;;;;;;;;;18.90;99.90;;;;;;5031267;28;19935;-72
2022/08/24 03:23:40;;;;;;;;;;;18.90;99.90;;;;;;5038386;28;19916;-72
2022/08/24 03:26:06;;;;;;;;;;;19.00;99.90;;;;;;5020071;28;19956;-73
2022/08/24 03:28:31;;;;;;;;;;;19.00;99.90;;;;;;5014986;28;19918;-73
2022/08/24 03:30:57;;;;;;;;;;;19.00;99.90;;;;;;5008652;28;20427;-73
2022/08/24 03:33:22;;;;;;;;;;;19.00;99.90;;;;;;5018772;28;20225;-73
2022/08/24 03:35:48;;;;;;;;;;;19.00;99.90;;;;;;5018901;28;20020;-72
2022/08/24 03:38:14;;;;;;;;;;;19.00;99.90;;;;;;5027082;28;20203;-72
2022/08/24 03:40:40;;;;;;;;;;;19.00;99.90;;;;;;5037091;28;19921;-72
2022/08/24 03:43:06;;;;;;;;;;;19.00;99.90;;;;;;5027615;28;20396;-72
2022/08/24 03:45:32;;;;;;;;;;;19.00;99.90;;;;;;5039161;28;20300;-72
2022/08/24 03:47:57;;;;;;;;;;;19.00;99.90;;;;;;5030670;28;19917;-73
2022/08/24 03:50:24;;;;;;;;;;;19.00;99.90;;;;;;5032969;28;19924;-73
2022/08/24 03:52:49;;;;;;;;;;;19.10;99.90;;;;;;5037475;28;19917;-73
2022/08/24 03:55:15;;;;;;;;;;;19.00;99.90;;;;;;5039042;28;20835;-73
2022/08/24 03:57:40;;;;;;;;;;;19.10;99.90;;;;;;5022502;28;20191;-73
2022/08/24 04:00:08;;;;;;;;;;;19.10;99.90;;;;;;5022391;28;19979;-73
2022/08/24 04:02:34;;;;;;;;;;;19.20;99.90;;;;;;5019369;28;20025;-73
2022/08/24 04:04:59;;;;;;;;;;;19.20;99.90;;;;;;5019114;28;19996;-72
2022/08/24 04:07:25;;;;;;;;;;;19.20;99.90;;;;;;5013011;28;19960;-73
2022/08/24 04:09:50;;;;;;;;;;;19.20;99.90;;;;;;5030819;28;19919;-73
2022/08/24 04:12:16;;;;;;;;;;;19.20;99.90;;;;;;5033101;28;19917;-73
2022/08/24 04:14:41;;;;;;;;;;;19.20;99.90;;;;;;5038598;28;20137;-73
2022/08/24 04:17:07;;;;;;;;;;;19.20;99.90;;;;;;5015424;28;20380;-72
2022/08/24 04:19:33;;;;;;;;;;;19.20;99.90;;;;;;5024985;28;20349;-73
2022/08/24 04:21:59;;;;;;;;;;;19.20;99.90;;;;;;5027141;28;19961;-73
2022/08/24 04:24:25;;;;;;;;;;;19.20;99.90;;;;;;5030324;28;19917;-72
2022/08/24 04:26:50;;;;;;;;;;;19.20;99.90;;;;;;5041678;28;19984;-73
2022/08/24 04:29:18;;;;;;;;;;;19.20;99.90;;;;;;5034028;28;21745;-72
2022/08/24 04:31:44;;;;;;;;;;;19.20;99.90;;;;;;5005242;28;19917;-73
2022/08/24 04:34:10;;;;;;;;;;;19.30;99.90;;;;;;5001378;28;19914;-73
2022/08/24 04:36:36;;;;;;;;;;;19.30;99.90;;;;;;5009143;28;19917;-73
2022/08/24 04:39:02;;;;;;;;;;;19.20;99.90;;;;;;5032350;28;20007;-73
2022/08/24 04:41:27;;;;;;;;;;;19.20;99.90;;;;;;5008851;28;20355;-73
2022/08/24 04:43:53;;;;;;;;;;;19.20;99.90;;;;;;5006254;28;19925;-73
2022/08/24 04:46:19;;;;;;;;;;;19.20;99.90;;;;;;5016411;28;20351;-72
2022/08/24 04:48:46;;;;;;;;;;;19.20;99.90;;;;;;5020632;28;21849;-73
2022/08/24 04:51:12;;;;;;;;;;;19.20;99.90;;;;;;5034693;28;20715;-72
2022/08/24 04:53:38;;;;;;;;;;;19.20;99.90;;;;;;5023466;28;19919;-72
2022/08/24 04:56:28;;;;;;;;;;;19.20;99.90;;;;;;5022456;28;20385;-73
2022/08/24 04:58:54;;;;;;;;;;;19.20;99.90;;;;;;5020040;28;20331;-72
2022/08/24 05:01:21;;;;;;;;;;;19.20;99.90;;;;;;5025267;28;19921;-73
2022/08/24 05:03:49;;;;;;;;;;;19.10;99.90;;;;;;5003172;28;20015;-72
2022/08/24 05:06:15;;;;;;;;;;;19.20;99.90;;;;;;5017176;28;19921;-73
2022/08/24 05:08:42;;;;;;;;;;;19.20;99.90;;;;;;5021820;28;20036;-72
2022/08/24 05:11:07;;;;;;;;;;;19.20;99.90;;;;;;5026436;28;19924;-73
2022/08/24 05:13:34;;;;;;;;;;;19.20;99.90;;;;;;5017841;28;19917;-72
2022/08/24 05:15:59;;;;;;;;;;;19.20;99.90;;;;;;5012322;28;19948;-73
2022/08/24 05:18:28;;;;;;;;;;;19.20;99.90;;;;;;5011634;28;20272;-73
2022/08/24 05:20:54;;;;;;;;;;;19.20;99.90;;;;;;5018397;28;19925;-73
2022/08/24 05:23:20;;;;;;;;;;;19.30;99.90;;;;;;5016214;28;19963;-73
2022/08/24 05:25:46;;;;;;;;;;;19.20;99.90;;;;;;5024085;28;20475;-73
2022/08/24 05:28:11;;;;;;;;;;;19.30;99.90;;;;;;5027482;28;19920;-73
2022/08/24 05:30:37;;;;;;;;;;;19.30;99.90;;;;;;5034816;28;19963;-73
2022/08/24 05:33:03;;;;;;;;;;;19.30;99.90;;;;;;5023101;28;19988;-73
2022/08/24 05:35:28;;;;;;;;;;;19.30;99.90;;;;;;5013946;28;19917;-73
2022/08/24 05:37:54;;;;;;;;;;;19.30;99.90;;;;;;5013532;28;19921;-73
2022/08/24 05:40:19;;;;;;;;;;;19.20;99.90;;;;;;5012039;28;19917;-73
2022/08/24 05:42:45;;;;;;;;;;;19.30;99.90;;;;;;5012943;28;19917;-73
2022/08/24 05:45:11;;;;;;;;;;;19.30;99.90;;;;;;5020389;28;19916;-72
2022/08/24 05:47:37;;;;;;;;;;;19.30;99.90;;;;;;5019527;28;19917;-73
2022/08/24 05:50:04;;;;;;;;;;;19.30;99.90;;;;;;5018195;28;20364;-72
2022/08/24 05:52:30;;;;;;;;;;;19.30;99.90;;;;;;5017726;28;20015;-72
2022/08/24 05:54:57;;;;;;;;;;;19.30;99.90;;;;;;5009609;28;20651;-73
2022/08/24 05:57:23;;;;;;;;;;;19.40;99.90;;;;;;5009856;28;19921;-73
2022/08/24 05:59:49;;;;;;;;;;;19.40;99.90;;;;;;5021712;28;19939;-73
2022/08/24 06:02:15;;;;;;;;;;;19.40;99.90;;;;;;5011280;28;20381;-73
2022/08/24 06:04:41;;;;;;;;;;;19.40;99.90;;;;;;5011212;28;19917;-73
2022/08/24 06:07:10;;;;;;;;;;;19.30;99.90;;;;;;5021949;28;19924;-73
2022/08/24 06:09:37;;;;;;;;;;;19.30;99.90;;;;;;5020680;28;19913;-73
2022/08/24 06:12:02;;;;;;;;;;;19.40;99.90;;;;;;5030210;28;20003;-73
2022/08/24 06:14:28;;;;;;;;;;;19.40;99.90;;;;;;5021554;28;20352;-73
2022/08/24 06:16:53;;;;;;;;;;;19.40;99.90;;;;;;5017742;28;20447;-72
2022/08/24 06:19:19;;;;;;;;;;;19.50;99.90;;;;;;5002218;28;20309;-73
2022/08/24 06:21:46;;;;;;;;;;;19.60;99.90;;;;;;5012433;28;19975;-73
2022/08/24 06:24:14;;;;;;;;;;;19.80;99.90;;;;;;5008980;28;19913;-73
2022/08/24 06:29:25;;;;;;;;;;;20.10;99.90;;;;;;5010984;28;20005;-73
2022/08/24 06:31:51;;;;;;;;;;;20.20;99.90;;;;;;5007556;28;19917;-73
2022/08/24 06:34:17;;;;;;;;;;;20.20;99.90;;;;;;5001645;28;20645;-73
2022/08/24 06:36:43;;;;;;;;;;;20.40;99.90;;;;;;5013817;28;19916;-73
2022/08/24 06:39:09;;;;;;;;;;;20.50;99.90;;;;;;5011561;28;20419;-73
2022/08/24 06:41:35;;;;;;;;;;;20.60;99.90;;;;;;5009800;28;20933;-73
2022/08/24 06:44:00;;;;;;;;;;;20.80;99.90;;;;;;5008271;28;19917;-72
2022/08/24 06:46:27;;;;;;;;;;;20.90;99.90;;;;;;5012753;28;19928;-73
2022/08/24 06:48:53;;;;;;;;;;;21.00;99.90;;;;;;5012168;28;20324;-73
2022/08/24 06:51:19;;;;;;;;;;;21.20;99.90;;;;;;5014382;28;20316;-73
2022/08/24 06:53:45;;;;;;;;;;;21.30;99.90;;;;;;5014923;28;20020;-73
2022/08/24 06:56:11;;;;;;;;;;;21.50;99.90;;;;;;5016337;28;19917;-73
2022/08/24 06:58:37;;;;;;;;;;;21.60;99.90;;;;;;5013467;28;19924;-73
2022/08/24 07:01:13;;;;;;;;;;;21.70;99.90;;;;;;5014021;28;19924;-73
2022/08/24 07:03:39;;;;;;;;;;;21.70;99.90;;;;;;5008612;28;19916;-73
2022/08/24 07:06:05;;;;;;;;;;;21.70;99.90;;;;;;5009122;28;19929;-73
2022/08/24 07:08:31;;;;;;;;;;;21.70;99.90;;;;;;5011954;28;19978;-73
2022/08/24 07:10:57;;;;;;;;;;;21.60;99.90;;;;;;5015966;28;19917;-79
2022/08/24 07:13:22;;;;;;;;;;;21.60;99.90;;;;;;5013221;28;19928;-80
2022/08/24 07:15:49;;;;;;;;;;;21.50;99.90;;;;;;5009841;28;19925;-81
2022/08/24 07:18:15;;;;;;;;;;;21.50;99.90;;;;;;5009503;28;19922;-81
2022/08/24 07:20:41;;;;;;;;;;;21.50;99.90;;;;;;5007534;28;20185;-80
2022/08/24 07:23:07;;;;;;;;;;;21.60;99.90;;;;;;4660906;28;9999626;-80
2022/08/24 07:25:33;;;;;;;;;;;21.90;99.90;;;;;;5009885;28;20090;-80
2022/08/24 07:27:59;;;;;;;;;;;22.30;99.90;;;;;;5012266;28;19917;-80
2022/08/24 07:30:28;;;;;;;;;;;22.30;99.90;;;;;;5010632;28;19928;-80
2022/08/24 07:32:55;;;;;;;;;;;22.20;99.90;;;;;;5005754;28;20199;-80
2022/08/24 07:35:21;;;;;;;;;;;22.30;99.90;;;;;;5014028;28;20288;-80
2022/08/24 07:37:47;;;;;;;;;;;22.40;99.90;;;;;;5010381;28;19949;-79
2022/08/24 07:40:12;;;;;;;;;;;22.70;99.90;;;;;;5015633;28;19961;-79
2022/08/24 07:42:41;;;;;;;;;;;22.90;99.90;;;;;;5015719;28;20324;-80
2022/08/24 07:45:07;;;;;;;;;;;23.00;99.90;;;;;;4994950;28;19968;-80
2022/08/24 07:47:32;;;;;;;;;;;23.00;99.90;;;;;;4997411;28;19921;-79
2022/08/24 07:49:58;;;;;;;;;;;23.10;99.90;;;;;;5000543;28;20666;-80
2022/08/24 07:52:24;;;;;;;;;;;23.00;99.90;;;;;;5000093;28;19917;-80
2022/08/24 07:54:49;;;;;;;;;;;22.90;99.90;;;;;;4987886;28;20321;-80
2022/08/24 07:57:15;;;;;;;;;;;22.90;99.90;;;;;;5001944;28;21406;-79
2022/08/24 07:59:41;;;;;;;;;;;23.10;99.90;;;;;;5010975;28;19952;-80
2022/08/24 08:02:07;;;;;;;;;;;23.30;99.90;;;;;;4984975;28;19991;-81
2022/08/24 08:04:33;;;;;;;;;;;23.30;99.90;;;;;;5034421;28;20408;-80
2022/08/24 08:07:00;;;;;;;;;;;23.70;99.90;;;;;;5021002;28;19968;-81
2022/08/24 08:09:26;;;;;;;;;;;24.30;99.90;;;;;;5019800;28;19959;-82
2022/08/24 08:11:51;;;;;;;;;;;24.80;99.90;;;;;;5030439;28;19917;-82
2022/08/24 08:14:17;;;;;;;;;;;26.20;99.90;;;;;;5025981;28;19929;-82
2022/08/24 08:16:42;;;;;;;;;;;27.50;99.90;;;;;;5024086;28;20373;-83
2022/08/24 08:19:08;;;;;;;;;;;29.00;99.90;;;;;;5031828;28;20324;-83
2022/08/24 08:24:18;;;;;;;;;;;30.10;99.90;;;;;;5021988;28;19971;-83
2022/08/24 08:26:45;;;;;;;;;;;29.90;99.90;;;;;;5004259;28;19921;-85
2022/08/24 08:29:12;;;;;;;;;;;29.20;99.90;;;;;;5017713;28;19925;-82
2022/08/24 08:31:41;;;;;;;;;;;28.40;99.90;;;;;;5020691;28;20007;-83
2022/08/24 08:34:06;;;;;;;;;;;27.70;99.90;;;;;;5005472;28;19918;-83
2022/08/24 08:36:33;;;;;;;;;;;27.00;99.90;;;;;;5016899;28;19921;-81
2022/08/24 08:38:58;;;;;;;;;;;26.60;99.90;;;;;;5008320;28;19925;-83
2022/08/24 08:41:33;;;;;;;;;;;27.00;99.90;;;;;;5019155;28;19929;-82
2022/08/24 08:44:07;;;;;;;;;;;27.60;99.90;;;;;;5012794;28;19919;-81
2022/08/24 08:46:46;;;;;;;;;;;28.60;99.90;;;;;;5018394;28;19917;-81
2022/08/24 08:49:12;;;;;;;;;;;28.50;99.90;;;;;;5016361;28;20296;-81
2022/08/24 08:51:56;;;;;;;;;;;27.90;99.90;;;;;;5034562;28;20296;-88
2022/08/24 08:54:22;;;;;;;;;;;27.20;99.90;;;;;;5016918;28;19931;-81
2022/08/24 08:57:06;;;;;;;;;;;26.50;99.90;;;;;;5011732;28;19947;-83
2022/08/24 08:59:34;;;;;;;;;;;26.10;99.90;;;;;;5010762;28;19932;-84
2022/08/24 09:02:09;;;;;;;;;;;25.70;99.90;;;;;;5026569;28;19921;-81
2022/08/24 09:04:46;;;;;;;;;;;25.60;99.90;;;;;;5017848;28;20572;-79
2022/08/24 09:07:23;;;;;;;;;;;25.80;99.90;;;;;;5006973;28;19921;-79
2022/08/24 09:09:55;;;;;;;;;;;26.00;99.90;;;;;;5008218;28;19917;-79
2022/08/24 09:12:20;;;;;;;;;;;26.20;99.90;;;;;;5000612;28;20320;-83
2022/08/24 09:15:05;;;;;;;;;;;27.20;99.90;;;;;;5010350;28;19929;-82
2022/08/24 09:17:35;;;;;;;;;;;27.80;99.90;;;;;;5014104;28;19948;-84
2022/08/24 09:20:06;;;;;;;;;;;28.80;99.90;;;;;;5011679;28;19953;-83
2022/08/24 09:22:36;;;;;;;;;;;30.00;99.90;;;;;;5016333;28;19936;-84
2022/08/24 09:25:23;;;;;;;;;;;31.40;99.90;;;;;;5012859;28;19917;-84
2022/08/24 09:27:55;;;;;;;;;;;32.30;93.20;;;;;;5012263;28;19924;-85
2022/08/24 09:30:22;;;;;;;;;;;31.30;93.60;;;;;;5017358;28;20491;-86
2022/08/24 09:33:14;;;;;;;;;;;30.10;96.90;;;;;;5019730;28;19923;-82
2022/08/24 09:35:51;;;;;;;;;;;29.20;99.90;;;;;;5016679;28;20448;-85
2022/08/24 09:38:36;;;;;;;;;;;28.50;99.90;;;;;;5014989;28;20440;-84
2022/08/24 09:41:20;;;;;;;;;;;28.40;99.90;;;;;;5011513;28;19964;-85
2022/08/24 09:43:49;;;;;;;;;;;29.10;99.90;;;;;;5016223;28;19921;-84
2022/08/24 09:46:20;;;;;;;;;;;30.00;99.60;;;;;;5013881;28;20490;-85
2022/08/24 09:48:46;;;;;;;;;;;31.70;94.50;;;;;;5003382;28;19916;-70
2022/08/24 09:51:30;;;;;;;;;;;33.80;91.70;;;;;;4999176;28;20472;-70
2022/08/24 09:54:14;;;;;;;;;;;35.10;83.50;;;;;;5017214;28;19925;-70
2022/08/24 09:56:46;;;;;;;;;;;35.40;81.00;;;;;;5017197;28;20353;-71
2022/08/24 09:59:20;;;;;;;;;;;36.60;77.20;;;;;;5013019;28;19947;-70
2022/08/24 10:01:49;;;;;;;;;;;36.60;74.50;;;;;;5005226;28;20024;-70
2022/08/24 10:04:33;;;;;;;;;;;36.10;74.90;;;;;;5010429;28;20166;-71
2022/08/24 10:07:11;;;;;;;;;;;36.30;74.20;;;;;;5016727;28;20381;-71
2022/08/24 10:09:51;;;;;;;;;;;36.90;69.60;;;;;;5002658;28;20496;-71
2022/08/24 10:12:26;;;;;;;;;;;37.40;69.10;;;;;;5009413;28;20008;-71
2022/08/24 10:14:51;;;;;;;;;;;38.10;67.20;;;;;;5015740;28;20504;-71
2022/08/24 10:17:18;;;;;;;;;;;38.70;64.90;;;;;;5016330;28;19925;-71
2022/08/24 10:19:48;;;;;;;;;;;38.80;63.50;;;;;;5018296;28;19940;-71
2022/08/24 10:22:17;;;;;;;;;;;38.50;63.60;;;;;;5015012;28;20043;-71
2022/08/24 10:24:48;;;;;;;;;;;37.30;63.90;;;;;;5020274;28;20423;-71
2022/08/24 10:27:31;;;;;;;;;;;36.20;64.20;;;;;;5017169;28;19917;-71
2022/08/24 10:30:15;;;;;;;;;;;35.70;68.00;;;;;;5023677;28;19917;-71
2022/08/24 10:33:04;;;;;;;;;;;34.60;70.90;;;;;;5021929;28;19916;-71
2022/08/24 10:35:49;;;;;;;;;;;34.10;75.40;;;;;;5017741;28;19967;-70
2022/08/24 10:41:30;;;;;;;;;;;33.00;78.20;;;;;;5000321;28;20707;-70
2022/08/24 10:44:01;;;;;;;;;;;32.70;80.00;;;;;;5013507;28;20652;-70
2022/08/24 10:46:45;;;;;;;;;;;32.40;81.00;;;;;;5008027;28;20019;-70
2022/08/24 10:49:23;;;;;;;;;;;32.90;84.10;;;;;;5009660;28;19921;-70
2022/08/24 10:52:07;;;;;;;;;;;32.70;83.90;;;;;;5012812;28;19964;-70
2022/08/24 10:54:33;;;;;;;;;;;32.80;84.50;;;;;;5006932;28;19917;-70
2022/08/24 10:57:07;;;;;;;;;;;32.80;83.50;;;;;;5007232;28;19929;-71
2022/08/24 10:59:39;;;;;;;;;;;32.20;81.70;;;;;;5007587;28;20065;-71
2022/08/24 11:02:11;;;;;;;;;;;32.40;84.80;;;;;;5013063;28;19932;-70
2022/08/24 11:04:38;;;;;;;;;;;33.40;89.60;;;;;;5010948;28;19924;-70
2022/08/24 11:07:07;;;;;;;;;;;34.70;78.70;;;;;;5004954;28;19939;-71
2022/08/24 11:09:53;;;;;;;;;;;35.40;75.50;;;;;;5008623;28;19992;-71
2022/08/24 11:12:22;;;;;;;;;;;36.20;77.50;;;;;;5013350;28;19928;-71
2022/08/24 11:14:48;;;;;;;;;;;36.20;68.50;;;;;;5002631;28;19972;-71
2022/08/24 11:17:16;;;;;;;;;;;36.80;70.00;;;;;;5011856;28;20312;-72
2022/08/24 11:19:42;;;;;;;;;;;36.90;68.40;;;;;;5016860;28;19928;-71
2022/08/24 11:22:40;;;;;;;;;;;36.10;69.60;;;;;;4996455;28;19944;-71
2022/08/24 11:25:09;;;;;;;;;;;36.20;71.60;;;;;;4989103;28;19921;-72
2022/08/24 11:27:44;;;;;;;;;;;36.30;69.50;;;;;;5013713;28;19920;-71
2022/08/24 11:30:28;;;;;;;;;;;36.80;67.00;;;;;;5031008;28;20557;-71
2022/08/24 11:32:56;;;;;;;;;;;36.10;66.10;;;;;;5039317;28;20645;-71
2022/08/24 11:35:24;;;;;;;;;;;34.40;72.50;;;;;;5027811;28;20462;-71
2022/08/24 11:37:51;;;;;;;;;;;34.00;74.20;;;;;;5016117;28;19917;-71
2022/08/24 11:40:18;;;;;;;;;;;33.70;77.40;;;;;;5012964;28;19917;-72
2022/08/24 11:43:01;;;;;;;;;;;33.90;76.10;;;;;;5003939;28;20170;-70
2022/08/24 11:45:27;;;;;;;;;;;33.20;74.00;;;;;;5007578;28;19917;-71
2022/08/24 11:48:02;;;;;;;;;;;32.30;79.60;;;;;;5010192;28;19921;-71
2022/08/24 11:50:47;;;;;;;;;;;32.00;83.50;;;;;;5001115;28;20307;-71
2022/08/24 11:53:15;;;;;;;;;;;32.40;85.80;;;;;;5011311;28;19917;-70
2022/08/24 11:55:50;;;;;;;;;;;32.90;81.80;;;;;;5006962;28;20289;-71
2022/08/24 11:58:34;;;;;;;;;;;32.80;82.80;;;;;;5029363;28;19928;-71
2022/08/24 12:01:00;;;;;;;;;;;32.30;83.10;;;;;;5015902;28;19928;-71
2022/08/24 12:03:58;;;;;;;;;;;32.10;81.60;;;;;;5009372;28;19983;-70
2022/08/24 12:06:30;;;;;;;;;;;31.50;84.10;;;;;;4993107;28;19917;-70
2022/08/24 12:08:56;;;;;;;;;;;31.20;87.20;;;;;;5031981;28;19921;-71
2022/08/24 12:11:40;;;;;;;;;;;31.60;83.90;;;;;;5031164;28;19923;-72
2022/08/24 12:14:14;;;;;;;;;;;31.70;85.10;;;;;;5016684;28;19936;-71
2022/08/24 12:16:52;;;;;;;;;;;32.00;86.30;;;;;;5024416;28;19943;-71
2022/08/24 12:19:19;;;;;;;;;;;32.10;82.30;;;;;;5011805;28;19917;-71
2022/08/24 12:21:46;;;;;;;;;;;32.30;88.20;;;;;;5027665;28;20380;-69
2022/08/24 12:24:19;;;;;;;;;;;32.40;81.40;;;;;;5015883;28;19923;-69
2022/08/24 12:26:59;;;;;;;;;;;32.00;81.20;;;;;;5015691;28;19987;-70
2022/08/24 12:29:36;;;;;;;;;;;32.40;81.50;;;;;;5000452;28;19922;-70
2022/08/24 12:32:20;;;;;;;;;;;32.20;88.80;;;;;;5009984;28;19936;-69
2022/08/24 12:34:46;;;;;;;;;;;31.50;82.50;;;;;;5021782;28;20368;-69
2022/08/24 12:37:20;;;;;;;;;;;31.10;87.90;;;;;;5016682;28;20036;-70
2022/08/24 12:39:48;;;;;;;;;;;31.00;88.40;;;;;;5027247;28;20438;-69
2022/08/24 12:42:33;;;;;;;;;;;31.20;84.40;;;;;;5030290;28;20359;-70
2022/08/24 12:45:00;;;;;;;;;;;31.40;84.40;;;;;;5014273;28;19940;-69
2022/08/24 12:47:33;;;;;;;;;;;31.40;86.20;;;;;;5016066;28;19917;-70
2022/08/24 12:50:04;;;;;;;;;;;31.40;88.20;;;;;;5014109;28;19924;-69
2022/08/24 12:52:38;;;;;;;;;;;30.90;87.90;;;;;;5014222;28;20023;-68
2022/08/24 12:55:04;;;;;;;;;;;30.30;87.10;;;;;;5032846;28;19916;-68
2022/08/24 12:57:37;;;;;;;;;;;30.50;90.90;;;;;;5008233;28;20273;-68
2022/08/24 13:00:24;;;;;;;;;;;30.10;90.20;;;;;;5012704;28;19939;-68
2022/08/24 13:02:54;;;;;;;;;;;29.80;91.90;;;;;;5002640;28;19921;-69
2022/08/24 13:05:20;;;;;;;;;;;29.30;92.60;;;;;;5009134;28;19917;-69
2022/08/24 13:07:50;;;;;;;;;;;28.90;94.20;;;;;;5005701;28;19929;-68
2022/08/24 13:10:24;;;;;;;;;;;29.10;95.60;;;;;;5003462;28;19967;-69
2022/08/24 13:12:53;;;;;;;;;;;29.60;95.70;;;;;;5008501;28;19963;-69
2022/08/24 13:15:21;;;;;;;;;;;30.00;92.80;;;;;;5011885;28;19926;-69
2022/08/24 13:17:48;;;;;;;;;;;30.30;89.80;;;;;;5015319;28;19968;-69
2022/08/24 13:20:22;;;;;;;;;;;30.60;88.80;;;;;;5010206;28;19921;-69
2022/08/24 13:23:06;;;;;;;;;;;30.80;92.10;;;;;;5006023;28;19936;-69
2022/08/24 13:25:38;;;;;;;;;;;31.00;90.00;;;;;;5011449;28;20752;-69
2022/08/24 13:28:06;;;;;;;;;;;31.20;88.40;;;;;;5011076;28;20500;-69
2022/08/24 13:30:34;;;;;;;;;;;31.00;83.70;;;;;;4998230;28;19970;-69
2022/08/24 13:33:02;;;;;;;;;;;30.40;85.40;;;;;;5019192;28;19964;-69
2022/08/24 13:35:33;;;;;;;;;;;29.90;87.00;;;;;;5014250;28;19917;-69
2022/08/24 13:38:17;;;;;;;;;;;29.60;91.50;;;;;;5015849;28;19939;-70
2022/08/24 13:40:48;;;;;;;;;;;29.50;90.40;;;;;;5013970;28;20253;-69
2022/08/24 13:43:29;;;;;;;;;;;29.20;92.70;;;;;;5014679;28;19921;-72
2022/08/24 13:46:14;;;;;;;;;;;29.40;91.50;;;;;;5012487;28;19917;-70
2022/08/24 13:48:53;;;;;;;;;;;29.60;90.70;;;;;;5014879;28;19970;-71
2022/08/24 13:51:31;;;;;;;;;;;29.70;91.60;;;;;;5011620;28;20392;-70
2022/08/24 13:54:04;;;;;;;;;;;30.10;88.00;;;;;;5012478;28;19924;-71
2022/08/24 13:56:38;;;;;;;;;;;30.10;87.40;;;;;;5019423;28;19921;-70
2022/08/24 13:59:22;;;;;;;;;;;30.10;89.40;;;;;;5013434;28;19917;-70
2022/08/24 14:02:06;;;;;;;;;;;29.90;86.90;;;;;;5018347;28;19986;-70
2022/08/24 14:04:34;;;;;;;;;;;29.20;89.90;;;;;;5004918;28;20160;-70
2022/08/24 14:07:16;;;;;;;;;;;28.80;93.20;;;;;;5012038;28;19983;-71
2022/08/24 14:09:42;;;;;;;;;;;28.60;90.80;;;;;;5018992;28;19924;-71
2022/08/24 14:12:34;;;;;;;;;;;28.60;91.50;;;;;;5018941;28;19921;-71
2022/08/24 14:15:02;;;;;;;;;;;28.80;91.40;;;;;;5011445;28;19932;-71
2022/08/24 14:18:13;;;;;;;;;;;28.80;91.80;;;;;;5026985;28;19917;-71
2022/08/24 14:20:50;;;;;;;;;;;29.10;92.40;;;;;;5013071;28;19917;-71
2022/08/24 14:23:18;;;;;;;;;;;29.20;90.60;;;;;;5014860;28;19936;-71
2022/08/24 14:25:44;;;;;;;;;;;29.30;91.20;;;;;;5013934;28;19924;-71
2022/08/24 14:28:22;;;;;;;;;;;29.10;91.90;;;;;;5002153;28;20159;-71
2022/08/24 14:31:07;;;;;;;;;;;29.20;91.80;;;;;;5017198;28;20639;-71
2022/08/24 14:33:34;;;;;;;;;;;29.30;91.10;;;;;;5010065;28;19925;-71
2022/08/24 14:36:10;;;;;;;;;;;28.80;90.80;;;;;;5003333;28;19928;-71
2022/08/24 14:38:56;;;;;;;;;;;28.40;91.60;;;;;;5011114;28;19921;-70
2022/08/24 14:41:39;;;;;;;;;;;28.20;92.80;;;;;;5012065;28;20728;-70